Chilik Southeast Airfield

Jump to: basic info | weather | comments

Related pages: nearby airports | nearby navaids

Basic information (top)

Location: lon 43.223598, lat 78.732399, elev 4,497 ft / 1,371 m msl
Status: small_airport

Weather (top)

Current conditions for Almaty Airport 74nm (138km) W (rec'd 2015/01/30 00:00Z):

UAAA 300000Z VRB01MPS 1100 R05L/P2000N R05R/P2000N BR FU SCT008 BKN100 M17/M20 Q1022 R05L/3///60 R05R/91//60 NOSIG

Airport forecast for Almaty Airport 74nm (138km) W (rec'd 2015/01/29 00:18Z):

TAF TAF UAAA 292300Z 3000/3024 VRB02MPS 0800 FZFG FU OVC004 TXM12/3008Z TNM20/3001Z 
      TEMPO 3000/3006 0200 VV001 
      BECMG 3006/3007 02005MPS 2000 BR FU BKN010 OVC010 
      BECMG 3013/3014 16005MPS 0800 FZFG FU 
      TEMPO 3013/3024 0200 VV002

Latest comments (top)

Spelling: OK oK its Kazakhstan♄, so you have a ... [read]

Airfield: I came across this airfield on Google, ... [read]

More... (top)

See also NOTAMs and nearby airports and navaids, or visit the Chilik Southeast Airfield page at the main OurAirports website..